createdAt,value
2022-08-05T00:01:19.975Z,3.60
2022-08-05T00:02:07.382Z,4.60
2022-08-05T00:03:07.626Z,5.30
2022-08-05T00:04:12.040Z,7.10
2022-08-05T00:06:01.858Z,3.10
2022-08-05T00:06:30.676Z,4.30
2022-08-05T00:07:59.748Z,3.60
2022-08-05T00:08:34.347Z,3.90
2022-08-05T00:09:34.078Z,4.20
2022-08-05T00:10:38.469Z,4.50
2022-08-05T00:11:48.666Z,4.30
2022-08-05T00:12:55.974Z,5.60
2022-08-05T00:13:53.077Z,3.60
2022-08-05T00:14:56.124Z,4.80
2022-08-05T00:16:00.621Z,2.50
2022-08-05T00:17:04.933Z,3.60
2022-08-05T00:18:09.358Z,5.40
2022-08-05T00:19:13.762Z,5.00
2022-08-05T00:20:20.202Z,5.20
2022-08-05T00:21:22.581Z,4.60
2022-08-05T00:22:26.978Z,3.60
2022-08-05T00:23:45.863Z,3.20
2022-08-05T00:24:35.799Z,5.40
2022-08-05T00:25:45.544Z,5.20
2022-08-05T00:26:51.937Z,4.30
2022-08-05T00:27:49.010Z,5.30
2022-08-05T00:28:53.447Z,7.60
2022-08-05T00:29:57.842Z,8.10
2022-08-05T00:31:04.272Z,5.00
2022-08-05T00:32:13.013Z,4.40
2022-08-05T00:33:15.652Z,5.30
2022-08-05T00:34:53.257Z,7.40
2022-08-05T00:35:20.300Z,6.60
2022-08-05T00:37:12.338Z,4.00
2022-08-05T00:37:35.824Z,4.40
2022-08-05T00:38:34.041Z,3.80
2022-08-05T00:39:44.262Z,5.10
2022-08-05T00:40:41.964Z,7.00
2022-08-05T00:41:46.777Z,4.60
2022-08-05T00:42:50.763Z,5.20
2022-08-05T00:43:55.183Z,4.00
2022-08-05T00:44:59.585Z,4.50
2022-08-05T00:46:03.983Z,3.70
2022-08-05T00:47:08.385Z,5.50
2022-08-05T00:48:12.797Z,6.30
2022-08-05T00:49:17.235Z,4.80
2022-08-05T00:50:21.635Z,5.50
2022-08-05T00:51:51.884Z,4.70
2022-08-05T00:52:30.446Z,7.10
2022-08-05T00:54:00.253Z,5.40
2022-08-05T00:54:39.276Z,4.90
2022-08-05T00:55:43.886Z,7.50
2022-08-05T00:56:51.751Z,7.90
2022-08-05T00:57:58.411Z,7.30
2022-08-05T00:58:56.906Z,9.00
2022-08-05T01:00:01.314Z,5.00
2022-08-05T01:01:06.050Z,6.20
2022-08-05T01:02:10.116Z,8.60
2022-08-05T01:03:22.961Z,5.60
2022-08-05T01:04:19.949Z,5.00
2022-08-05T01:05:23.369Z,5.10
2022-08-05T01:06:32.659Z,6.60
2022-08-05T01:07:32.186Z,6.90
2022-08-05T01:08:43.366Z,6.70
2022-08-05T01:09:41.016Z,7.10
2022-08-05T01:10:51.642Z,7.90
2022-08-05T01:11:49.818Z,6.50
2022-08-05T01:13:05.359Z,5.80
2022-08-05T01:13:59.724Z,6.00
2022-08-05T01:15:04.047Z,6.20
2022-08-05T01:16:07.495Z,8.00
2022-08-05T01:17:11.888Z,7.80
2022-08-05T01:18:16.299Z,7.40
2022-08-05T01:19:20.718Z,7.90
2022-08-05T01:20:25.130Z,6.70
2022-08-05T01:21:38.459Z,7.40
2022-08-05T01:22:34.131Z,7.70
2022-08-05T01:23:38.359Z,8.30
2022-08-05T01:24:42.791Z,9.10
2022-08-05T01:25:53.251Z,8.10
2022-08-05T01:26:51.592Z,8.20
2022-08-05T01:27:56.035Z,7.90
2022-08-05T01:29:03.525Z,6.90
2022-08-05T01:30:04.841Z,7.70
2022-08-05T01:31:09.246Z,8.60
2022-08-05T01:32:18.402Z,10.00
2022-08-05T01:33:19.730Z,6.30
2022-08-05T01:34:22.481Z,5.60
2022-08-05T01:35:51.873Z,10.30
2022-08-05T01:36:31.292Z,9.00
2022-08-05T01:37:36.614Z,8.10
2022-08-05T01:38:40.101Z,7.30
2022-08-05T01:39:47.730Z,7.70
2022-08-05T01:40:48.932Z,8.10
2022-08-05T01:41:53.353Z,7.60
2022-08-05T01:42:57.755Z,9.10
2022-08-05T01:44:02.161Z,9.00
2022-08-05T01:45:08.194Z,7.20
2022-08-05T01:46:16.251Z,9.00
2022-08-05T01:47:15.423Z,5.70
2022-08-05T01:48:19.833Z,6.80
2022-08-05T01:49:24.947Z,11.30
2022-08-05T01:50:29.695Z,7.30
2022-08-05T01:51:33.093Z,6.60
2022-08-05T01:52:37.513Z,7.40
2022-08-05T01:53:57.064Z,8.10
2022-08-05T01:54:46.511Z,8.00
2022-08-05T01:55:50.748Z,8.60
2022-08-05T01:58:10.036Z,8.90
2022-08-05T01:58:14.862Z,8.30
2022-08-05T01:59:03.995Z,9.80
2022-08-05T02:00:12.056Z,8.10
2022-08-05T02:01:12.835Z,8.80
2022-08-05T02:02:17.281Z,7.00
2022-08-05T02:03:28.930Z,8.20
2022-08-05T02:04:26.078Z,8.10
2022-08-05T02:05:30.487Z,9.00
2022-08-05T02:06:38.190Z,7.30
2022-08-05T02:07:39.316Z,13.00
2022-08-05T02:08:54.762Z,10.70
2022-08-05T02:09:48.150Z,10.50
2022-08-05T02:10:52.547Z,8.50
2022-08-05T02:11:56.958Z,10.60
2022-08-05T02:13:01.358Z,9.60
2022-08-05T02:14:05.771Z,9.10
2022-08-05T02:15:12.111Z,12.00
2022-08-05T02:16:16.432Z,9.60
2022-08-05T02:18:14.508Z,11.30
2022-08-05T02:18:31.562Z,8.90
2022-08-05T02:19:27.826Z,6.30
2022-08-05T02:20:32.268Z,12.40
2022-08-05T02:21:38.052Z,9.10
2022-08-05T02:22:41.092Z,8.00
2022-08-05T02:23:46.016Z,10.80
2022-08-05T02:24:52.144Z,8.40
2022-08-05T02:25:54.328Z,10.30
2022-08-05T02:26:58.747Z,9.40
2022-08-05T02:28:03.143Z,8.60
2022-08-05T02:29:07.557Z,9.50
2022-08-05T02:30:11.980Z,9.60
2022-08-05T02:31:16.392Z,9.40
2022-08-05T02:32:24.251Z,11.50
2022-08-05T02:33:36.125Z,10.00
2022-08-05T02:34:29.608Z,9.70
2022-08-05T02:35:37.676Z,12.00
2022-08-05T02:36:38.451Z,9.30
2022-08-05T02:37:42.851Z,9.10
2022-08-05T02:38:53.126Z,10.30
2022-08-05T02:39:51.869Z,8.80
2022-08-05T02:40:56.083Z,10.10
2022-08-05T02:42:01.588Z,9.10
2022-08-05T02:43:04.884Z,9.70
2022-08-05T02:44:12.363Z,7.10
2022-08-05T02:45:13.723Z,7.30
2022-08-05T02:46:18.144Z,8.80
2022-08-05T02:47:22.721Z,11.60
2022-08-05T02:48:29.104Z,9.90
2022-08-05T02:49:36.548Z,9.20
2022-08-05T02:50:35.801Z,10.20
2022-08-05T02:52:04.416Z,9.50
2022-08-05T02:52:44.603Z,10.80
2022-08-05T02:53:49.024Z,11.20
2022-08-05T02:54:53.425Z,11.40
2022-08-05T02:56:00.318Z,12.00
2022-08-05T02:57:02.284Z,8.90
2022-08-05T02:58:09.460Z,8.30
2022-08-05T02:59:11.115Z,10.90
2022-08-05T03:00:15.517Z,12.20
2022-08-05T03:01:19.966Z,14.40
2022-08-05T03:02:24.347Z,10.10
2022-08-05T03:03:34.062Z,11.20
2022-08-05T03:04:33.152Z,10.80
2022-08-05T03:06:53.818Z,10.10
2022-08-05T03:06:54.854Z,9.30
2022-08-05T03:08:06.974Z,9.80
2022-08-05T03:08:52.331Z,9.30
2022-08-05T03:09:55.216Z,10.00
2022-08-05T03:11:55.509Z,8.20
2022-08-05T03:12:04.053Z,12.80
2022-08-05T03:14:14.428Z,10.80
2022-08-05T03:15:18.885Z,10.30
2022-08-05T03:16:23.352Z,9.60
2022-08-05T03:17:27.804Z,12.20
2022-08-05T03:18:32.244Z,10.80
2022-08-05T03:19:36.685Z,12.40
2022-08-05T03:20:48.770Z,11.00
2022-08-05T03:21:48.650Z,9.80
2022-08-05T03:22:50.602Z,12.80
2022-08-05T03:23:54.517Z,9.60
2022-08-05T03:25:11.573Z,10.00
2022-08-05T03:26:04.497Z,11.50
2022-08-05T03:27:07.899Z,10.50
2022-08-05T03:28:13.907Z,13.70
2022-08-05T03:29:17.454Z,10.70
2022-08-05T03:30:21.248Z,12.20
2022-08-05T03:31:55.767Z,10.60
2022-08-05T03:32:30.924Z,11.30
2022-08-05T03:33:50.898Z,11.60
2022-08-05T03:34:39.099Z,11.90
2022-08-05T03:35:43.550Z,10.10
2022-08-05T03:36:48.026Z,11.00
2022-08-05T03:37:53.541Z,11.90
2022-08-05T03:38:56.929Z,9.40
2022-08-05T03:40:03.819Z,10.50
2022-08-05T03:41:08.396Z,8.40
2022-08-05T03:42:10.329Z,9.50
2022-08-05T03:43:59.017Z,12.70
2022-08-05T03:44:19.859Z,13.10
2022-08-05T03:45:23.840Z,12.30
2022-08-05T03:46:29.665Z,13.50
2022-08-05T03:47:35.502Z,10.70
2022-08-05T03:48:37.091Z,13.00
2022-08-05T03:49:51.585Z,11.60
2022-08-05T03:50:46.001Z,12.20
2022-08-05T03:52:37.324Z,11.30
2022-08-05T03:55:07.165Z,12.10
2022-08-05T03:55:49.953Z,13.40
2022-08-05T03:56:05.294Z,11.10
2022-08-05T03:56:17.149Z,12.20
2022-08-05T03:57:16.762Z,13.40
2022-08-05T03:58:17.231Z,13.20
2022-08-05T03:59:21.704Z,13.00
2022-08-05T04:00:26.151Z,12.30
2022-08-05T04:01:32.234Z,12.60
2022-08-05T04:02:38.468Z,10.20
2022-08-05T04:03:39.552Z,11.90
2022-08-05T04:04:44.909Z,12.20
2022-08-05T04:05:48.463Z,11.90
2022-08-05T04:06:52.953Z,11.20
2022-08-05T04:07:59.034Z,9.10
2022-08-05T04:09:01.875Z,10.80
2022-08-05T04:10:06.343Z,15.90
2022-08-05T04:11:10.786Z,13.30
2022-08-05T04:12:23.749Z,12.10
2022-08-05T04:13:19.726Z,13.70
2022-08-05T04:14:30.179Z,10.80
2022-08-05T04:15:33.137Z,15.10
2022-08-05T04:16:33.085Z,14.20
2022-08-05T04:17:56.610Z,14.90
2022-08-05T04:18:42.030Z,13.00
2022-08-05T04:19:46.484Z,15.20
2022-08-05T04:20:50.935Z,15.60
2022-08-05T04:22:10.323Z,15.50
2022-08-05T04:22:59.884Z,14.50
2022-08-05T04:24:06.219Z,15.80
2022-08-05T04:25:08.786Z,15.10
2022-08-05T04:26:13.642Z,17.00
2022-08-05T04:27:17.745Z,15.80
2022-08-05T04:28:30.859Z,14.90
2022-08-05T04:29:27.169Z,17.10
2022-08-05T04:30:31.129Z,19.10
2022-08-05T04:31:38.749Z,16.50
2022-08-05T04:32:40.101Z,18.10
2022-08-05T04:34:19.200Z,18.90
2022-08-05T04:34:49.027Z,21.30
2022-08-05T04:36:10.865Z,19.20
2022-08-05T04:36:58.728Z,22.60
2022-08-05T04:38:06.791Z,19.80
2022-08-05T04:39:07.819Z,22.10
2022-08-05T04:40:12.158Z,20.90
2022-08-05T04:41:16.627Z,18.50
2022-08-05T04:42:21.127Z,18.20
2022-08-05T04:43:26.035Z,21.60
2022-08-05T04:59:55.917Z,22.40
2022-08-05T05:01:00.401Z,21.30
2022-08-05T05:02:35.474Z,21.10
2022-08-05T05:03:09.335Z,21.30
2022-08-05T05:04:13.733Z,24.40
2022-08-05T05:05:28.565Z,24.80
2022-08-05T05:06:40.591Z,24.50
2022-08-05T05:07:29.682Z,24.60
2022-08-05T05:08:31.498Z,22.60
2022-08-05T05:09:37.230Z,21.30
2022-08-05T05:10:40.360Z,21.40
2022-08-05T05:11:54.079Z,23.50
2022-08-05T05:12:50.621Z,25.90
2022-08-05T05:13:55.255Z,22.60
2022-08-05T05:14:57.978Z,28.00
2022-08-05T05:16:06.054Z,25.90
2022-08-05T05:17:07.355Z,31.40
2022-08-05T05:18:11.282Z,27.60
2022-08-05T05:19:23.670Z,28.60
2022-08-05T05:20:20.330Z,28.10
2022-08-05T05:21:24.554Z,26.00
2022-08-05T05:22:28.982Z,27.10
2022-08-05T05:24:01.813Z,25.60
2022-08-05T05:24:56.243Z,27.90
2022-08-05T05:25:42.262Z,23.00
2022-08-05T05:26:46.683Z,19.80
2022-08-05T05:27:53.996Z,22.00
2022-08-05T05:28:55.549Z,19.80
2022-08-05T05:30:04.669Z,25.00
2022-08-05T05:31:05.687Z,22.60
2022-08-05T05:32:12.499Z,24.00
2022-08-05T05:33:17.108Z,25.80
2022-08-05T05:34:22.528Z,35.20
2022-08-05T05:35:21.922Z,36.50
2022-08-05T05:36:28.785Z,27.50
2022-08-05T05:37:37.429Z,24.10
2022-08-05T05:38:35.145Z,24.50
2022-08-05T05:39:39.692Z,24.00
2022-08-05T05:40:49.610Z,19.30
2022-08-05T05:41:54.069Z,24.60
2022-08-05T05:42:52.768Z,22.60
2022-08-05T05:44:00.722Z,22.70
2022-08-05T05:45:02.973Z,25.60
2022-08-05T05:46:10.728Z,19.50
2022-08-05T05:47:13.183Z,25.10
2022-08-05T05:48:15.970Z,33.60
2022-08-05T05:49:23.034Z,20.30
2022-08-05T05:50:23.685Z,20.70
2022-08-05T05:51:28.296Z,20.70
2022-08-05T05:52:34.538Z,26.70
2022-08-05T05:53:54.343Z,24.70
2022-08-05T05:54:50.090Z,23.60
2022-08-05T05:55:52.430Z,25.20
2022-08-05T05:56:50.209Z,28.70
2022-08-05T05:57:54.619Z,24.00
2022-08-05T05:59:03.523Z,23.30
2022-08-05T06:00:03.456Z,24.70
2022-08-05T06:01:12.850Z,23.70
2022-08-05T06:02:12.290Z,24.90
2022-08-05T06:03:40.308Z,25.30
2022-08-05T06:04:22.073Z,27.70
2022-08-05T06:05:25.559Z,26.30
2022-08-05T06:06:33.153Z,29.40
2022-08-05T06:07:41.580Z,27.40
2022-08-05T06:08:39.661Z,29.20
2022-08-05T06:09:59.861Z,30.20
2022-08-05T06:10:52.616Z,32.70
2022-08-05T06:11:59.495Z,31.10
2022-08-05T06:12:56.509Z,32.60
2022-08-05T06:14:00.938Z,32.10
2022-08-05T06:15:05.349Z,34.20
2022-08-05T06:16:30.850Z,30.30
2022-08-05T06:17:24.562Z,33.50
2022-08-05T06:18:18.581Z,35.70
2022-08-05T06:19:33.036Z,36.80
2022-08-05T06:20:28.094Z,36.60
2022-08-05T06:21:36.657Z,33.80
2022-08-05T06:22:36.244Z,36.20
2022-08-05T06:23:44.157Z,35.60
2022-08-05T06:24:48.121Z,40.80
2022-08-05T06:26:12.446Z,37.00
2022-08-05T06:26:54.751Z,42.80
2022-08-05T06:28:11.341Z,40.00
2022-08-05T06:29:23.477Z,42.10
2022-08-05T06:30:20.107Z,41.80
2022-08-05T06:31:17.931Z,38.60
2022-08-05T06:32:25.565Z,38.60
2022-08-05T06:34:00.507Z,38.50
2022-08-05T06:34:27.761Z,41.30
2022-08-05T06:36:07.720Z,42.50
2022-08-05T06:36:53.439Z,41.20
2022-08-05T06:37:57.778Z,33.70
2022-08-05T06:38:47.034Z,33.80
2022-08-05T06:39:47.954Z,33.20
2022-08-05T06:40:52.324Z,35.10
2022-08-05T06:41:57.425Z,32.10
2022-08-05T06:43:01.137Z,30.00
2022-08-05T06:44:05.575Z,32.90
2022-08-05T06:45:09.992Z,26.80
2022-08-05T06:46:14.405Z,29.70
2022-08-05T06:48:11.348Z,30.60
2022-08-05T06:48:52.959Z,29.40
2022-08-05T06:50:02.017Z,26.90
2022-08-05T06:50:32.088Z,27.10
2022-08-05T06:51:36.498Z,28.50
2022-08-05T06:52:40.904Z,23.90
2022-08-05T06:53:45.314Z,25.40
2022-08-05T06:54:53.426Z,28.20
2022-08-05T06:55:54.263Z,29.90
2022-08-05T06:57:56.845Z,25.60
2022-08-05T06:58:29.593Z,28.40
2022-08-05T06:59:09.490Z,24.20
2022-08-05T07:00:11.845Z,28.10
2022-08-05T07:01:16.332Z,26.30
2022-08-05T07:02:22.883Z,25.60
2022-08-05T07:03:27.965Z,25.70
2022-08-05T07:04:29.525Z,25.90
2022-08-05T07:05:37.671Z,29.10
2022-08-05T07:06:38.340Z,29.50
2022-08-05T07:07:43.018Z,26.10
2022-08-05T07:08:47.857Z,26.40
2022-08-05T07:09:55.643Z,22.00
2022-08-05T07:10:55.987Z,25.20
2022-08-05T07:12:00.797Z,24.90
2022-08-05T07:13:04.800Z,27.40
2022-08-05T07:14:20.202Z,24.00
2022-08-05T07:15:13.638Z,24.70
2022-08-05T07:17:56.727Z,23.60
2022-08-05T07:18:00.822Z,22.70
2022-08-05T07:18:30.074Z,23.40
2022-08-05T07:20:10.690Z,25.00
2022-08-05T07:20:37.212Z,26.40
2022-08-05T07:22:00.510Z,23.00
2022-08-05T07:22:44.529Z,33.00
2022-08-05T07:23:49.913Z,24.40
2022-08-05T07:24:53.725Z,24.00
2022-08-05T07:25:57.809Z,22.80
2022-08-05T07:27:02.842Z,24.00
2022-08-05T07:28:09.628Z,22.80
2022-08-05T07:29:11.033Z,22.60
2022-08-05T07:30:24.084Z,23.20
2022-08-05T07:31:19.890Z,23.90
2022-08-05T07:32:26.245Z,23.70
2022-08-05T07:33:35.073Z,21.80
2022-08-05T07:34:33.157Z,24.90
2022-08-05T07:36:03.870Z,21.50
2022-08-05T07:36:41.964Z,18.30
2022-08-05T07:37:47.257Z,22.80
2022-08-05T07:38:55.033Z,18.90
2022-08-05T07:40:25.951Z,20.10
2022-08-05T07:41:16.700Z,21.00
2022-08-05T07:42:14.783Z,18.10
2022-08-05T07:43:20.352Z,18.70
2022-08-05T07:44:18.499Z,19.40
2022-08-05T07:45:17.295Z,22.10
2022-08-05T07:46:25.557Z,20.80
2022-08-05T07:47:26.135Z,18.70
2022-08-05T07:49:00.829Z,18.50
2022-08-05T07:49:34.966Z,19.50
2022-08-05T07:50:39.397Z,19.50
2022-08-05T07:51:53.103Z,18.00
2022-08-05T07:52:48.225Z,19.90
2022-08-05T07:53:52.640Z,17.30
2022-08-05T07:54:57.068Z,18.80
2022-08-05T07:56:05.500Z,14.50
2022-08-05T07:57:22.580Z,18.40
2022-08-05T07:58:17.623Z,15.80
2022-08-05T07:59:14.738Z,18.10
2022-08-05T08:00:19.189Z,18.10
2022-08-05T08:01:23.637Z,14.20
2022-08-05T08:02:31.176Z,18.30
2022-08-05T08:03:44.438Z,22.10
2022-08-05T08:04:37.366Z,17.70
2022-08-05T08:05:44.697Z,19.00
2022-08-05T08:06:45.988Z,22.30
2022-08-05T08:07:59.078Z,22.10
2022-08-05T08:08:54.809Z,19.10
2022-08-05T08:09:59.219Z,19.00
2022-08-05T08:11:03.672Z,19.70
2022-08-05T08:12:27.521Z,23.60
2022-08-05T08:13:12.493Z,20.00
2022-08-05T08:14:18.199Z,21.80
2022-08-05T08:16:33.987Z,20.90
2022-08-05T08:16:50.851Z,23.20
2022-08-05T08:17:30.297Z,27.00
2022-08-05T08:18:34.580Z,21.30
2022-08-05T08:20:21.080Z,23.50
2022-08-05T08:21:01.885Z,20.90
2022-08-05T08:21:47.859Z,20.50
2022-08-05T08:22:52.261Z,21.90
2022-08-05T08:24:02.215Z,23.70
2022-08-05T08:25:02.714Z,20.50
2022-08-05T08:26:05.522Z,22.50
2022-08-05T08:27:09.931Z,20.20
2022-08-05T08:28:18.822Z,20.00
2022-08-05T08:29:29.406Z,22.60
2022-08-05T08:30:32.583Z,23.20
2022-08-05T08:31:27.611Z,21.70
2022-08-05T08:32:32.023Z,18.80
2022-08-05T08:33:37.986Z,19.30
2022-08-05T08:34:40.851Z,19.20
2022-08-05T08:35:52.853Z,22.60
2022-08-05T08:36:54.740Z,19.10
2022-08-05T08:37:56.370Z,17.60
2022-08-05T08:38:58.579Z,19.20
2022-08-05T08:40:03.452Z,19.20
2022-08-05T08:41:08.053Z,18.00
2022-08-05T08:42:34.073Z,18.00
2022-08-05T08:44:56.502Z,19.10
2022-08-05T08:45:23.562Z,17.90
2022-08-05T08:45:29.740Z,18.40
2022-08-05T08:46:31.415Z,19.30
2022-08-05T08:48:05.702Z,18.10
2022-08-05T08:49:03.277Z,14.70
2022-08-05T08:50:22.916Z,17.50
2022-08-05T08:51:03.722Z,16.90
2022-08-05T08:52:02.983Z,20.70
2022-08-05T08:52:57.926Z,18.00
2022-08-05T08:54:02.336Z,15.90
2022-08-05T08:55:13.021Z,22.80
2022-08-05T08:56:11.189Z,17.10
2022-08-05T08:57:15.596Z,19.70
2022-08-05T08:58:20.036Z,22.30
2022-08-05T08:59:27.686Z,17.80
2022-08-05T09:00:28.949Z,17.20
2022-08-05T09:01:33.405Z,16.50
2022-08-05T09:02:37.775Z,15.20
2022-08-05T09:03:45.136Z,19.10
2022-08-05T09:04:58.571Z,15.20
2022-08-05T09:06:09.273Z,16.20
2022-08-05T09:06:55.396Z,17.10
2022-08-05T09:07:59.802Z,16.00
2022-08-05T09:09:04.201Z,15.50
2022-08-05T09:10:08.590Z,15.50
2022-08-05T09:11:13.929Z,16.10
2022-08-05T09:12:20.620Z,12.80
2022-08-05T09:13:23.476Z,14.80
2022-08-05T09:14:56.648Z,13.20
2022-08-05T09:15:30.614Z,12.50
2022-08-05T09:16:34.990Z,12.40
2022-08-05T09:17:40.737Z,13.00
2022-08-05T09:18:43.737Z,10.00
2022-08-05T09:19:55.230Z,13.40
2022-08-05T09:20:52.599Z,12.50
2022-08-05T09:22:23.341Z,12.10
2022-08-05T09:23:04.881Z,10.00
2022-08-05T09:24:05.773Z,13.20
2022-08-05T09:25:24.057Z,10.40
2022-08-05T09:26:15.847Z,9.10
2022-08-05T09:27:18.992Z,10.10
2022-08-05T09:28:23.435Z,10.10
2022-08-05T09:29:30.791Z,9.90
2022-08-05T09:30:32.261Z,9.50
2022-08-05T09:32:39.062Z,10.10
2022-08-05T09:32:46.729Z,10.00
2022-08-05T09:33:45.551Z,9.50
2022-08-05T09:34:49.979Z,9.60
2022-08-05T09:35:54.394Z,11.30
2022-08-05T09:36:59.979Z,9.30
2022-08-05T09:38:12.937Z,13.80
2022-08-05T09:39:16.611Z,10.30
2022-08-05T09:40:12.147Z,10.10
2022-08-05T09:41:16.555Z,12.40
2022-08-05T09:42:24.151Z,8.30
2022-08-05T09:43:25.331Z,10.50
2022-08-05T09:44:29.672Z,9.80
2022-08-05T09:46:06.496Z,10.20
2022-08-05T09:46:38.522Z,9.60
2022-08-05T09:47:55.089Z,8.30
2022-08-05T09:49:06.541Z,7.60
2022-08-05T09:49:55.010Z,8.30
2022-08-05T09:50:56.284Z,8.40
2022-08-05T09:52:00.746Z,10.40
2022-08-05T09:53:05.166Z,9.80
2022-08-05T09:54:10.157Z,7.80
2022-08-05T09:55:56.825Z,8.10
2022-08-05T09:56:18.447Z,9.30
2022-08-05T09:57:23.357Z,7.20
2022-08-05T09:58:29.217Z,8.60
2022-08-05T09:59:35.217Z,8.50
2022-08-05T10:00:36.186Z,7.30
2022-08-05T10:01:40.619Z,11.70
2022-08-05T10:02:45.113Z,7.70
2022-08-05T10:03:58.473Z,7.80
2022-08-05T10:04:53.917Z,5.90
2022-08-05T10:05:58.338Z,10.20
2022-08-05T10:07:19.672Z,6.70
2022-08-05T10:08:36.660Z,6.70
2022-08-05T10:09:27.811Z,8.50
2022-08-05T10:10:17.917Z,8.40
2022-08-05T10:11:20.506Z,8.90
2022-08-05T10:12:33.432Z,8.20
2022-08-05T10:13:31.628Z,8.40
2022-08-05T10:14:33.838Z,8.20
2022-08-05T10:15:38.259Z,8.30
2022-08-05T10:16:52.955Z,10.40
2022-08-05T10:17:54.617Z,10.10
2022-08-05T10:18:51.539Z,9.50
2022-08-05T10:20:04.471Z,9.10
2022-08-05T10:21:08.456Z,7.70
2022-08-05T10:22:04.795Z,9.40
2022-08-05T10:23:34.073Z,7.10
2022-08-05T10:24:14.015Z,10.80
2022-08-05T10:25:18.070Z,10.50
2022-08-05T10:26:24.244Z,8.30
2022-08-05T10:28:09.442Z,11.10
2022-08-05T10:28:31.426Z,11.10
2022-08-05T10:30:41.878Z,8.80
2022-08-05T10:32:49.066Z,7.80
2022-08-05T10:32:51.501Z,7.70
2022-08-05T10:32:59.877Z,10.30
2022-08-05T10:33:54.466Z,9.50
2022-08-05T10:34:57.904Z,8.70
2022-08-05T10:36:02.322Z,8.20
2022-08-05T10:37:06.741Z,9.70
2022-08-05T10:38:11.754Z,7.80
2022-08-05T10:39:24.824Z,9.40
2022-08-05T10:40:20.081Z,8.20
2022-08-05T10:41:24.452Z,8.90
2022-08-05T10:42:33.924Z,5.90
2022-08-05T10:43:35.786Z,7.80
2022-08-05T10:44:37.743Z,8.70
2022-08-05T10:45:42.963Z,8.40
2022-08-05T10:46:46.583Z,9.60
2022-08-05T10:48:29.948Z,8.00
2022-08-05T10:48:58.063Z,8.50
2022-08-05T10:50:20.877Z,8.60
2022-08-05T10:51:04.312Z,8.50
2022-08-05T10:52:10.479Z,6.50
2022-08-05T10:53:13.183Z,8.30
2022-08-05T10:54:28.558Z,9.60
2022-08-05T10:55:22.031Z,7.70
2022-08-05T10:56:26.492Z,7.00
2022-08-05T10:57:33.957Z,6.80
2022-08-05T10:58:35.902Z,7.20
2022-08-05T11:00:02.547Z,11.30
2022-08-05T11:00:44.216Z,9.10
2022-08-05T11:01:54.560Z,17.80
2022-08-05T11:02:53.032Z,11.50
2022-08-05T11:03:57.495Z,8.50
2022-08-05T11:05:01.885Z,9.50
2022-08-05T11:06:06.296Z,7.00
2022-08-05T11:07:10.724Z,9.00
2022-08-05T11:08:36.567Z,8.20
2022-08-05T11:09:32.500Z,9.00
2022-08-05T11:10:27.409Z,8.80
2022-08-05T11:11:41.984Z,8.60
2022-08-05T11:12:33.118Z,10.50
2022-08-05T11:13:37.398Z,7.50
2022-08-05T11:16:00.453Z,7.20
2022-08-05T11:16:57.093Z,7.20
2022-08-05T11:18:00.179Z,6.80
2022-08-05T11:18:59.522Z,6.40
2022-08-05T11:20:11.466Z,7.20
2022-08-05T11:21:12.033Z,6.70
2022-08-05T11:22:12.768Z,5.60
2022-08-05T11:23:17.211Z,5.80
2022-08-05T11:24:30.014Z,6.10
2022-08-05T11:26:05.040Z,8.10
2022-08-05T11:26:32.594Z,8.30
2022-08-05T11:27:50.981Z,6.00
2022-08-05T11:28:39.309Z,7.10
2022-08-05T11:29:43.733Z,6.10
2022-08-05T11:30:48.139Z,7.60
2022-08-05T11:31:56.447Z,6.20
2022-08-05T11:32:56.971Z,6.60
2022-08-05T11:34:01.412Z,6.10
2022-08-05T11:35:05.838Z,5.50
2022-08-05T11:36:10.256Z,5.00
2022-08-05T11:38:28.240Z,11.20
2022-08-05T11:38:29.411Z,4.70
2022-08-05T11:39:23.618Z,6.70
2022-08-05T11:40:27.942Z,6.60
2022-08-05T11:41:56.329Z,4.30
2022-08-05T11:42:38.108Z,4.40
2022-08-05T11:44:05.026Z,5.10
2022-08-05T11:44:53.695Z,5.10
2022-08-05T11:46:30.606Z,5.90
2022-08-05T11:47:09.996Z,5.00
2022-08-05T11:47:58.906Z,3.90
2022-08-05T11:49:03.317Z,2.40
2022-08-05T11:50:07.766Z,4.50
2022-08-05T11:51:12.139Z,5.10
2022-08-05T11:52:16.556Z,3.90
2022-08-05T11:53:21.048Z,3.20
2022-08-05T11:54:33.861Z,4.60
2022-08-05T11:55:31.992Z,5.30
2022-08-05T11:56:41.144Z,3.90
2022-08-05T11:58:08.186Z,3.10
2022-08-05T11:58:43.076Z,4.20
2022-08-05T11:59:50.410Z,2.90
2022-08-05T12:00:52.786Z,6.40
2022-08-05T12:01:56.325Z,4.20
2022-08-05T12:03:00.764Z,5.50
2022-08-05T12:04:05.164Z,4.60
2022-08-05T12:05:18.328Z,4.30
2022-08-05T12:06:13.964Z,5.40
2022-08-05T12:07:18.365Z,4.60
2022-08-05T12:08:22.775Z,6.50
2022-08-05T12:09:52.978Z,5.80
2022-08-05T12:10:43.567Z,4.60
2022-08-05T12:11:40.318Z,3.70
2022-08-05T12:12:58.265Z,5.60
2022-08-05T12:13:49.303Z,4.10
2022-08-05T12:14:49.288Z,6.80
2022-08-05T12:15:55.887Z,3.50
2022-08-05T12:16:58.107Z,3.70
2022-08-05T12:18:09.898Z,3.50
2022-08-05T12:19:08.418Z,5.50
2022-08-05T12:20:27.554Z,4.00
2022-08-05T12:21:15.760Z,4.20
2022-08-05T12:22:20.258Z,4.20
2022-08-05T12:23:24.579Z,4.80
2022-08-05T12:24:29.970Z,4.20
2022-08-05T12:25:33.421Z,5.10
2022-08-05T12:26:37.828Z,2.80
2022-08-05T12:27:52.743Z,5.50
2022-08-05T12:28:46.630Z,3.80
2022-08-05T12:29:56.785Z,4.00
2022-08-05T12:30:55.489Z,4.20
2022-08-05T12:32:02.150Z,4.30
2022-08-05T12:33:07.235Z,5.60
2022-08-05T12:34:08.709Z,4.80
2022-08-05T12:35:13.128Z,4.40
2022-08-05T12:36:17.585Z,4.50
2022-08-05T12:37:21.987Z,3.90
2022-08-05T12:38:30.239Z,3.60
2022-08-05T12:39:34.529Z,5.40
2022-08-05T12:40:35.232Z,4.10
2022-08-05T12:41:43.690Z,3.90
2022-08-05T12:42:44.032Z,3.30
2022-08-05T12:43:48.432Z,4.20
2022-08-05T12:44:52.861Z,4.60
2022-08-05T12:45:57.262Z,4.30
2022-08-05T12:47:02.063Z,5.50
2022-08-05T12:48:27.679Z,3.10
2022-08-05T12:49:13.147Z,2.70
2022-08-05T12:50:14.902Z,2.70
2022-08-05T12:52:10.777Z,4.00
2022-08-05T12:52:26.738Z,4.80
2022-08-05T12:53:37.155Z,3.50
2022-08-05T12:54:32.554Z,3.10
2022-08-05T12:55:36.982Z,3.10
2022-08-05T12:56:41.372Z,2.50
2022-08-05T12:58:38.337Z,4.90
2022-08-05T12:58:55.729Z,4.60
2022-08-05T13:01:58.473Z,2.70
2022-08-05T13:02:01.382Z,3.60
2022-08-05T13:02:06.623Z,3.50
2022-08-05T13:03:07.748Z,3.30
2022-08-05T13:04:12.134Z,3.70
2022-08-05T13:05:16.548Z,4.30
2022-08-05T13:06:20.938Z,2.30
2022-08-05T13:07:55.804Z,3.60
2022-08-05T13:08:29.722Z,3.10
2022-08-05T13:09:34.105Z,4.50
2022-08-05T13:10:38.534Z,3.60
2022-08-05T13:12:01.436Z,4.50
2022-08-05T13:12:51.221Z,4.30
2022-08-05T13:14:05.368Z,4.20
2022-08-05T13:14:59.178Z,2.90
2022-08-05T13:16:00.527Z,2.90
2022-08-05T13:17:04.904Z,4.20
2022-08-05T13:18:09.307Z,2.70
2022-08-05T13:19:14.538Z,3.00
2022-08-05T13:20:23.428Z,3.00
2022-08-05T13:21:23.327Z,4.30
2022-08-05T13:22:29.976Z,2.80
2022-08-05T13:23:32.128Z,3.60
2022-08-05T13:24:57.727Z,2.90
2022-08-05T13:25:52.033Z,3.10
2022-08-05T13:26:50.663Z,3.10
2022-08-05T13:27:50.280Z,3.80
2022-08-05T13:28:54.098Z,2.30
2022-08-05T13:30:33.150Z,2.40
2022-08-05T13:31:03.409Z,3.50
2022-08-05T13:32:07.349Z,2.60
2022-08-05T13:33:11.751Z,5.20
2022-08-05T13:34:24.492Z,3.80
2022-08-05T13:35:22.166Z,3.20
2022-08-05T13:36:24.935Z,4.00
2022-08-05T13:37:34.740Z,2.30
2022-08-05T13:38:36.355Z,3.40
2022-08-05T13:40:16.473Z,5.20
2022-08-05T13:40:49.976Z,2.90
2022-08-05T13:41:46.901Z,3.50
2022-08-05T13:42:55.656Z,3.00
2022-08-05T13:43:55.679Z,2.80
2022-08-05T13:45:00.070Z,3.20
2022-08-05T13:46:04.488Z,4.80
2022-08-05T13:47:09.344Z,3.90
2022-08-05T13:48:58.178Z,3.00
2022-08-05T13:49:17.651Z,3.40
2022-08-05T13:50:22.062Z,3.40
2022-08-05T13:51:26.452Z,2.80
2022-08-05T13:52:30.842Z,5.90
2022-08-05T13:53:35.244Z,5.00
2022-08-05T13:54:39.628Z,3.40
2022-08-05T13:55:49.237Z,4.40
2022-08-05T13:56:50.722Z,3.60
2022-08-05T13:57:52.831Z,2.70
2022-08-05T13:58:57.206Z,2.90
2022-08-05T14:00:01.875Z,3.30
2022-08-05T14:01:06.001Z,3.30
2022-08-05T14:02:10.385Z,2.50
2022-08-05T14:03:14.791Z,2.60
2022-08-05T14:04:19.149Z,2.10
2022-08-05T14:05:48.096Z,3.30
2022-08-05T14:06:27.942Z,2.90
2022-08-05T14:08:01.174Z,3.90
2022-08-05T14:08:36.934Z,2.40
2022-08-05T14:09:42.831Z,3.30
2022-08-05T14:10:45.476Z,2.30
2022-08-05T14:12:00.305Z,4.10
2022-08-05T14:12:54.542Z,2.00
2022-08-05T14:13:58.663Z,3.90
2022-08-05T14:15:05.903Z,3.60
2022-08-05T14:16:11.397Z,4.10
2022-08-05T14:17:17.660Z,2.60
2022-08-05T14:18:18.255Z,3.50
2022-08-05T14:19:20.617Z,3.50
2022-08-05T14:20:27.359Z,3.30
2022-08-05T14:22:08.647Z,3.70